<?xml version="1.0" encoding="UTF-8" standalone="no" ?>
<gpx xmlns="http://www.topografix.com/GPX/1/1" xmlns:xsi="http://www.w3.org/2001/XMLSchema-instance" xsi:schemaLocation="http://www.topografix.com/GPX/1/1 http://www.topografix.com/GPX/1/1/gpx.xsd" version="1.1" creator="VisuGPX - https://www.visugpx.com">
  <metadata>
    <name>Riorges vers le parc de Beaulieu</name>
    <desc><![CDATA[Bord du Renaison à l'occasion de l'édition d'art plastique 2018  "A ciel ouvert"]]></desc>
  </metadata>
  <trk>
    <name><![CDATA[Riorges vers le parc de Beaulieu_1]]></name>
    <trkseg>
      <trkpt lat="46.03552" lon="4.03113">
        <ele>351.659</ele>
        <time>2018-06-02T13:52:14Z</time>
      </trkpt>
      <trkpt lat="46.03555" lon="4.03121">
        <ele>357.646</ele>
        <time>2018-06-02T13:52:19Z</time>
      </trkpt>
      <trkpt lat="46.03561" lon="4.03121">
        <ele>360.535</ele>
        <time>2018-06-02T13:52:25Z</time>
      </trkpt>
      <trkpt lat="46.03561" lon="4.03121">
        <ele>356.288</ele>
        <time>2018-06-02T13:52:30Z</time>
      </trkpt>
      <trkpt lat="46.03561" lon="4.03121">
        <ele>355.228</ele>
        <time>2018-06-02T13:52:36Z</time>
      </trkpt>
      <trkpt lat="46.03561" lon="4.03121">
        <ele>354.143</ele>
        <time>2018-06-02T13:52:41Z</time>
      </trkpt>
      <trkpt lat="46.03568" lon="4.03125">
        <ele>353.166</ele>
        <time>2018-06-02T13:52:47Z</time>
      </trkpt>
      <trkpt lat="46.03578" lon="4.03137">
        <ele>352.212</ele>
        <time>2018-06-02T13:52:53Z</time>
      </trkpt>
      <trkpt lat="46.03585" lon="4.03139">
        <ele>351.036</ele>
        <time>2018-06-02T13:52:59Z</time>
      </trkpt>
      <trkpt lat="46.0359" lon="4.03139">
        <ele>350.594</ele>
        <time>2018-06-02T13:53:04Z</time>
      </trkpt>
      <trkpt lat="46.03594" lon="4.0314">
        <ele>350.312</ele>
        <time>2018-06-02T13:53:10Z</time>
      </trkpt>
      <trkpt lat="46.036" lon="4.03148">
        <ele>349.835</ele>
        <time>2018-06-02T13:53:16Z</time>
      </trkpt>
      <trkpt lat="46.03603" lon="4.03151">
        <ele>349.128</ele>
        <time>2018-06-02T13:53:21Z</time>
      </trkpt>
      <trkpt lat="46.03607" lon="4.03155">
        <ele>348.797</ele>
        <time>2018-06-02T13:53:26Z</time>
      </trkpt>
      <trkpt lat="46.0361" lon="4.03167">
        <ele>348.059</ele>
        <time>2018-06-02T13:53:32Z</time>
      </trkpt>
      <trkpt lat="46.03609" lon="4.03176">
        <ele>347.763</ele>
        <time>2018-06-02T13:53:38Z</time>
      </trkpt>
      <trkpt lat="46.03608" lon="4.03182">
        <ele>347.334</ele>
        <time>2018-06-02T13:53:44Z</time>
      </trkpt>
      <trkpt lat="46.03607" lon="4.03189">
        <ele>347.063</ele>
        <time>2018-06-02T13:53:49Z</time>
      </trkpt>
      <trkpt lat="46.03606" lon="4.03198">
        <ele>346.5</ele>
        <time>2018-06-02T13:53:55Z</time>
      </trkpt>
      <trkpt lat="46.03605" lon="4.03209">
        <ele>346.132</ele>
        <time>2018-06-02T13:54:01Z</time>
      </trkpt>
      <trkpt lat="46.03601" lon="4.03215">
        <ele>345.909</ele>
        <time>2018-06-02T13:54:06Z</time>
      </trkpt>
      <trkpt lat="46.03598" lon="4.0322">
        <ele>345.374</ele>
        <time>2018-06-02T13:54:12Z</time>
      </trkpt>
      <trkpt lat="46.03598" lon="4.03222">
        <ele>345.329</ele>
        <time>2018-06-02T13:54:17Z</time>
      </trkpt>
      <trkpt lat="46.03599" lon="4.03224">
        <ele>345.528</ele>
        <time>2018-06-02T13:54:22Z</time>
      </trkpt>
      <trkpt lat="46.036" lon="4.03225">
        <ele>346.018</ele>
        <time>2018-06-02T13:54:28Z</time>
      </trkpt>
      <trkpt lat="46.03597" lon="4.03231">
        <ele>346.774</ele>
        <time>2018-06-02T13:54:34Z</time>
      </trkpt>
      <trkpt lat="46.03596" lon="4.03237">
        <ele>346.446</ele>
        <time>2018-06-02T13:54:40Z</time>
      </trkpt>
      <trkpt lat="46.03598" lon="4.03239">
        <ele>346.088</ele>
        <time>2018-06-02T13:54:45Z</time>
      </trkpt>
      <trkpt lat="46.036" lon="4.03244">
        <ele>345.751</ele>
        <time>2018-06-02T13:54:50Z</time>
      </trkpt>
      <trkpt lat="46.03603" lon="4.03245">
        <ele>345.856</ele>
        <time>2018-06-02T13:54:56Z</time>
      </trkpt>
      <trkpt lat="46.03605" lon="4.03253">
        <ele>345.849</ele>
        <time>2018-06-02T13:55:02Z</time>
      </trkpt>
      <trkpt lat="46.03605" lon="4.03259">
        <ele>345.851</ele>
        <time>2018-06-02T13:55:07Z</time>
      </trkpt>
      <trkpt lat="46.03605" lon="4.03264">
        <ele>345.882</ele>
        <time>2018-06-02T13:55:13Z</time>
      </trkpt>
      <trkpt lat="46.03605" lon="4.03268">
        <ele>346.104</ele>
        <time>2018-06-02T13:55:19Z</time>
      </trkpt>
      <trkpt lat="46.03605" lon="4.03268">
        <ele>346.084</ele>
        <time>2018-06-02T13:55:25Z</time>
      </trkpt>
      <trkpt lat="46.03603" lon="4.03274">
        <ele>345.575</ele>
        <time>2018-06-02T13:55:30Z</time>
      </trkpt>
      <trkpt lat="46.036" lon="4.03279">
        <ele>345.181</ele>
        <time>2018-06-02T13:55:35Z</time>
      </trkpt>
      <trkpt lat="46.03597" lon="4.03284">
        <ele>345.149</ele>
        <time>2018-06-02T13:55:40Z</time>
      </trkpt>
      <trkpt lat="46.03595" lon="4.03289">
        <ele>345.732</ele>
        <time>2018-06-02T13:55:45Z</time>
      </trkpt>
      <trkpt lat="46.03594" lon="4.03296">
        <ele>345.499</ele>
        <time>2018-06-02T13:55:51Z</time>
      </trkpt>
      <trkpt lat="46.03597" lon="4.03303">
        <ele>345.048</ele>
        <time>2018-06-02T13:55:57Z</time>
      </trkpt>
      <trkpt lat="46.03597" lon="4.03311">
        <ele>344.607</ele>
        <time>2018-06-02T13:56:03Z</time>
      </trkpt>
      <trkpt lat="46.03598" lon="4.03321">
        <ele>343.888</ele>
        <time>2018-06-02T13:56:09Z</time>
      </trkpt>
      <trkpt lat="46.03599" lon="4.03333">
        <ele>343.252</ele>
        <time>2018-06-02T13:56:15Z</time>
      </trkpt>
      <trkpt lat="46.036" lon="4.03339">
        <ele>343.04</ele>
        <time>2018-06-02T13:56:21Z</time>
      </trkpt>
      <trkpt lat="46.03601" lon="4.03343">
        <ele>343.235</ele>
        <time>2018-06-02T13:56:27Z</time>
      </trkpt>
      <trkpt lat="46.036" lon="4.03343">
        <ele>343.717</ele>
        <time>2018-06-02T13:56:32Z</time>
      </trkpt>
      <trkpt lat="46.03599" lon="4.03344">
        <ele>344.062</ele>
        <time>2018-06-02T13:56:38Z</time>
      </trkpt>
      <trkpt lat="46.03599" lon="4.03343">
        <ele>344.391</ele>
        <time>2018-06-02T13:56:43Z</time>
      </trkpt>
      <trkpt lat="46.03599" lon="4.03342">
        <ele>344.353</ele>
        <time>2018-06-02T13:56:48Z</time>
      </trkpt>
      <trkpt lat="46.036" lon="4.03343">
        <ele>344.047</ele>
        <time>2018-06-02T13:56:54Z</time>
      </trkpt>
      <trkpt lat="46.03602" lon="4.03348">
        <ele>343.823</ele>
        <time>2018-06-02T13:57:00Z</time>
      </trkpt>
      <trkpt lat="46.03604" lon="4.03353">
        <ele>343.71</ele>
        <time>2018-06-02T13:57:05Z</time>
      </trkpt>
      <trkpt lat="46.03608" lon="4.03355">
        <ele>343.527</ele>
        <time>2018-06-02T13:57:11Z</time>
      </trkpt>
      <trkpt lat="46.03611" lon="4.0336">
        <ele>343.358</ele>
        <time>2018-06-02T13:57:17Z</time>
      </trkpt>
      <trkpt lat="46.03618" lon="4.0337">
        <ele>343.572</ele>
        <time>2018-06-02T13:57:22Z</time>
      </trkpt>
      <trkpt lat="46.03621" lon="4.03374">
        <ele>344.015</ele>
        <time>2018-06-02T13:57:27Z</time>
      </trkpt>
      <trkpt lat="46.03627" lon="4.03379">
        <ele>344.468</ele>
        <time>2018-06-02T13:57:32Z</time>
      </trkpt>
      <trkpt lat="46.0363" lon="4.03383">
        <ele>344.694</ele>
        <time>2018-06-02T13:57:38Z</time>
      </trkpt>
      <trkpt lat="46.03634" lon="4.03387">
        <ele>344.744</ele>
        <time>2018-06-02T13:57:44Z</time>
      </trkpt>
      <trkpt lat="46.03634" lon="4.0339">
        <ele>344.588</ele>
        <time>2018-06-02T13:57:49Z</time>
      </trkpt>
      <trkpt lat="46.03633" lon="4.03389">
        <ele>344.641</ele>
        <time>2018-06-02T13:57:55Z</time>
      </trkpt>
      <trkpt lat="46.0363" lon="4.0339">
        <ele>344.338</ele>
        <time>2018-06-02T13:58:00Z</time>
      </trkpt>
      <trkpt lat="46.03628" lon="4.03394">
        <ele>344.102</ele>
        <time>2018-06-02T13:58:05Z</time>
      </trkpt>
      <trkpt lat="46.03629" lon="4.03398">
        <ele>343.49</ele>
        <time>2018-06-02T13:58:11Z</time>
      </trkpt>
      <trkpt lat="46.03628" lon="4.03395">
        <ele>343.221</ele>
        <time>2018-06-02T13:58:16Z</time>
      </trkpt>
      <trkpt lat="46.03625" lon="4.03396">
        <ele>343.435</ele>
        <time>2018-06-02T13:58:21Z</time>
      </trkpt>
      <trkpt lat="46.03621" lon="4.03398">
        <ele>343.492</ele>
        <time>2018-06-02T13:58:27Z</time>
      </trkpt>
      <trkpt lat="46.03623" lon="4.03402">
        <ele>343.453</ele>
        <time>2018-06-02T13:58:33Z</time>
      </trkpt>
      <trkpt lat="46.03626" lon="4.03409">
        <ele>342.977</ele>
        <time>2018-06-02T13:58:38Z</time>
      </trkpt>
      <trkpt lat="46.03627" lon="4.03419">
        <ele>342.256</ele>
        <time>2018-06-02T13:58:43Z</time>
      </trkpt>
      <trkpt lat="46.0363" lon="4.03426">
        <ele>341.488</ele>
        <time>2018-06-02T13:58:48Z</time>
      </trkpt>
      <trkpt lat="46.03635" lon="4.03435">
        <ele>341.063</ele>
        <time>2018-06-02T13:58:54Z</time>
      </trkpt>
      <trkpt lat="46.03638" lon="4.03442">
        <ele>339.749</ele>
        <time>2018-06-02T13:59:00Z</time>
      </trkpt>
      <trkpt lat="46.03639" lon="4.03453">
        <ele>339.027</ele>
        <time>2018-06-02T13:59:06Z</time>
      </trkpt>
      <trkpt lat="46.03641" lon="4.03461">
        <ele>338.587</ele>
        <time>2018-06-02T13:59:13Z</time>
      </trkpt>
      <trkpt lat="46.03641" lon="4.03466">
        <ele>339.049</ele>
        <time>2018-06-02T13:59:18Z</time>
      </trkpt>
      <trkpt lat="46.03641" lon="4.03466">
        <ele>339.125</ele>
        <time>2018-06-02T13:59:23Z</time>
      </trkpt>
      <trkpt lat="46.03641" lon="4.03466">
        <ele>339.143</ele>
        <time>2018-06-02T13:59:28Z</time>
      </trkpt>
      <trkpt lat="46.03641" lon="4.03467">
        <ele>339.139</ele>
        <time>2018-06-02T13:59:33Z</time>
      </trkpt>
      <trkpt lat="46.0364" lon="4.03474">
        <ele>339.264</ele>
        <time>2018-06-02T13:59:39Z</time>
      </trkpt>
      <trkpt lat="46.03637" lon="4.03481">
        <ele>339.041</ele>
        <time>2018-06-02T13:59:44Z</time>
      </trkpt>
      <trkpt lat="46.03634" lon="4.03485">
        <ele>339.218</ele>
        <time>2018-06-02T13:59:49Z</time>
      </trkpt>
      <trkpt lat="46.0363" lon="4.03493">
        <ele>339.547</ele>
        <time>2018-06-02T13:59:55Z</time>
      </trkpt>
      <trkpt lat="46.0363" lon="4.03495">
        <ele>339.612</ele>
        <time>2018-06-02T14:00:00Z</time>
      </trkpt>
      <trkpt lat="46.03625" lon="4.03498">
        <ele>339.447</ele>
        <time>2018-06-02T14:00:06Z</time>
      </trkpt>
      <trkpt lat="46.03624" lon="4.03499">
        <ele>338.939</ele>
        <time>2018-06-02T14:00:12Z</time>
      </trkpt>
      <trkpt lat="46.03624" lon="4.035">
        <ele>338.978</ele>
        <time>2018-06-02T14:00:18Z</time>
      </trkpt>
      <trkpt lat="46.03624" lon="4.035">
        <ele>339.039</ele>
        <time>2018-06-02T14:00:24Z</time>
      </trkpt>
      <trkpt lat="46.03624" lon="4.035">
        <ele>339.258</ele>
        <time>2018-06-02T14:00:30Z</time>
      </trkpt>
      <trkpt lat="46.03624" lon="4.035">
        <ele>339.579</ele>
        <time>2018-06-02T14:00:36Z</time>
      </trkpt>
      <trkpt lat="46.03624" lon="4.035">
        <ele>339.863</ele>
        <time>2018-06-02T14:00:42Z</time>
      </trkpt>
      <trkpt lat="46.03624" lon="4.035">
        <ele>339.907</ele>
        <time>2018-06-02T14:00:47Z</time>
      </trkpt>
      <trkpt lat="46.03624" lon="4.035">
        <ele>339.825</ele>
        <time>2018-06-02T14:00:53Z</time>
      </trkpt>
      <trkpt lat="46.03624" lon="4.035">
        <ele>339.706</ele>
        <time>2018-06-02T14:00:59Z</time>
      </trkpt>
      <trkpt lat="46.03624" lon="4.03503">
        <ele>339.399</ele>
        <time>2018-06-02T14:01:05Z</time>
      </trkpt>
      <trkpt lat="46.03624" lon="4.03503">
        <ele>339.099</ele>
        <time>2018-06-02T14:01:10Z</time>
      </trkpt>
      <trkpt lat="46.03623" lon="4.03505">
        <ele>338.922</ele>
        <time>2018-06-02T14:01:16Z</time>
      </trkpt>
      <trkpt lat="46.03623" lon="4.03505">
        <ele>338.963</ele>
        <time>2018-06-02T14:01:22Z</time>
      </trkpt>
      <trkpt lat="46.03623" lon="4.03505">
        <ele>339.13</ele>
        <time>2018-06-02T14:01:28Z</time>
      </trkpt>
      <trkpt lat="46.03623" lon="4.03505">
        <ele>339.157</ele>
        <time>2018-06-02T14:01:33Z</time>
      </trkpt>
      <trkpt lat="46.03623" lon="4.03505">
        <ele>339.171</ele>
        <time>2018-06-02T14:01:39Z</time>
      </trkpt>
      <trkpt lat="46.03623" lon="4.03505">
        <ele>339.295</ele>
        <time>2018-06-02T14:01:45Z</time>
      </trkpt>
      <trkpt lat="46.03623" lon="4.03505">
        <ele>339.311</ele>
        <time>2018-06-02T14:01:51Z</time>
      </trkpt>
      <trkpt lat="46.03622" lon="4.03506">
        <ele>339.284</ele>
        <time>2018-06-02T14:01:56Z</time>
      </trkpt>
      <trkpt lat="46.03622" lon="4.03506">
        <ele>339.43</ele>
        <time>2018-06-02T14:02:02Z</time>
      </trkpt>
      <trkpt lat="46.03622" lon="4.03506">
        <ele>339.582</ele>
        <time>2018-06-02T14:02:07Z</time>
      </trkpt>
      <trkpt lat="46.0362" lon="4.03511">
        <ele>340.861</ele>
        <time>2018-06-02T14:02:13Z</time>
      </trkpt>
      <trkpt lat="46.03618" lon="4.03526">
        <ele>341.97</ele>
        <time>2018-06-02T14:02:18Z</time>
      </trkpt>
      <trkpt lat="46.03617" lon="4.03539">
        <ele>342.666</ele>
        <time>2018-06-02T14:02:24Z</time>
      </trkpt>
      <trkpt lat="46.03615" lon="4.03544">
        <ele>342.992</ele>
        <time>2018-06-02T14:02:30Z</time>
      </trkpt>
      <trkpt lat="46.03614" lon="4.03553">
        <ele>343.577</ele>
        <time>2018-06-02T14:02:35Z</time>
      </trkpt>
      <trkpt lat="46.03615" lon="4.03559">
        <ele>343.906</ele>
        <time>2018-06-02T14:02:41Z</time>
      </trkpt>
      <trkpt lat="46.03614" lon="4.03563">
        <ele>343.392</ele>
        <time>2018-06-02T14:02:46Z</time>
      </trkpt>
      <trkpt lat="46.03614" lon="4.03571">
        <ele>343.631</ele>
        <time>2018-06-02T14:02:51Z</time>
      </trkpt>
      <trkpt lat="46.03613" lon="4.03578">
        <ele>343.992</ele>
        <time>2018-06-02T14:02:57Z</time>
      </trkpt>
      <trkpt lat="46.03613" lon="4.03586">
        <ele>343.474</ele>
        <time>2018-06-02T14:03:03Z</time>
      </trkpt>
      <trkpt lat="46.03613" lon="4.03591">
        <ele>343.095</ele>
        <time>2018-06-02T14:03:08Z</time>
      </trkpt>
      <trkpt lat="46.03617" lon="4.03597">
        <ele>341.675</ele>
        <time>2018-06-02T14:03:14Z</time>
      </trkpt>
      <trkpt lat="46.0362" lon="4.03601">
        <ele>341.032</ele>
        <time>2018-06-02T14:03:19Z</time>
      </trkpt>
      <trkpt lat="46.03622" lon="4.03608">
        <ele>340.179</ele>
        <time>2018-06-02T14:03:25Z</time>
      </trkpt>
      <trkpt lat="46.03625" lon="4.03614">
        <ele>339.985</ele>
        <time>2018-06-02T14:03:31Z</time>
      </trkpt>
      <trkpt lat="46.03624" lon="4.0362">
        <ele>338.894</ele>
        <time>2018-06-02T14:03:36Z</time>
      </trkpt>
      <trkpt lat="46.03625" lon="4.0363">
        <ele>337.944</ele>
        <time>2018-06-02T14:03:42Z</time>
      </trkpt>
      <trkpt lat="46.0363" lon="4.03636">
        <ele>337.214</ele>
        <time>2018-06-02T14:03:47Z</time>
      </trkpt>
      <trkpt lat="46.03631" lon="4.03638">
        <ele>336.906</ele>
        <time>2018-06-02T14:03:53Z</time>
      </trkpt>
      <trkpt lat="46.03631" lon="4.03638">
        <ele>337.033</ele>
        <time>2018-06-02T14:03:59Z</time>
      </trkpt>
      <trkpt lat="46.03632" lon="4.03646">
        <ele>337.277</ele>
        <time>2018-06-02T14:04:05Z</time>
      </trkpt>
      <trkpt lat="46.03635" lon="4.03653">
        <ele>337.516</ele>
        <time>2018-06-02T14:04:11Z</time>
      </trkpt>
      <trkpt lat="46.03633" lon="4.03657">
        <ele>337.569</ele>
        <time>2018-06-02T14:04:17Z</time>
      </trkpt>
      <trkpt lat="46.03635" lon="4.0367">
        <ele>337.22</ele>
        <time>2018-06-02T14:04:23Z</time>
      </trkpt>
      <trkpt lat="46.03632" lon="4.03671">
        <ele>336.793</ele>
        <time>2018-06-02T14:04:28Z</time>
      </trkpt>
      <trkpt lat="46.03627" lon="4.03678">
        <ele>336.189</ele>
        <time>2018-06-02T14:04:34Z</time>
      </trkpt>
      <trkpt lat="46.03625" lon="4.03685">
        <ele>336.014</ele>
        <time>2018-06-02T14:04:40Z</time>
      </trkpt>
      <trkpt lat="46.03624" lon="4.03685">
        <ele>336.035</ele>
        <time>2018-06-02T14:04:46Z</time>
      </trkpt>
      <trkpt lat="46.03624" lon="4.03685">
        <ele>335.937</ele>
        <time>2018-06-02T14:04:52Z</time>
      </trkpt>
      <trkpt lat="46.03625" lon="4.03686">
        <ele>335.279</ele>
        <time>2018-06-02T14:04:57Z</time>
      </trkpt>
      <trkpt lat="46.03625" lon="4.03686">
        <ele>335.158</ele>
        <time>2018-06-02T14:05:03Z</time>
      </trkpt>
      <trkpt lat="46.03625" lon="4.03686">
        <ele>334.961</ele>
        <time>2018-06-02T14:05:09Z</time>
      </trkpt>
      <trkpt lat="46.03625" lon="4.03686">
        <ele>334.992</ele>
        <time>2018-06-02T14:05:15Z</time>
      </trkpt>
      <trkpt lat="46.03623" lon="4.0369">
        <ele>335.111</ele>
        <time>2018-06-02T14:05:21Z</time>
      </trkpt>
      <trkpt lat="46.03618" lon="4.03696">
        <ele>335.309</ele>
        <time>2018-06-02T14:05:27Z</time>
      </trkpt>
      <trkpt lat="46.03613" lon="4.03705">
        <ele>335.307</ele>
        <time>2018-06-02T14:05:33Z</time>
      </trkpt>
      <trkpt lat="46.03608" lon="4.0371">
        <ele>335.675</ele>
        <time>2018-06-02T14:05:39Z</time>
      </trkpt>
      <trkpt lat="46.03601" lon="4.03717">
        <ele>335.758</ele>
        <time>2018-06-02T14:05:45Z</time>
      </trkpt>
      <trkpt lat="46.03595" lon="4.03721">
        <ele>336.304</ele>
        <time>2018-06-02T14:05:51Z</time>
      </trkpt>
      <trkpt lat="46.03591" lon="4.03726">
        <ele>336.768</ele>
        <time>2018-06-02T14:05:56Z</time>
      </trkpt>
      <trkpt lat="46.03587" lon="4.0373">
        <ele>336.82</ele>
        <time>2018-06-02T14:06:02Z</time>
      </trkpt>
      <trkpt lat="46.03585" lon="4.03733">
        <ele>336.72</ele>
        <time>2018-06-02T14:06:07Z</time>
      </trkpt>
      <trkpt lat="46.03578" lon="4.03738">
        <ele>337.225</ele>
        <time>2018-06-02T14:06:13Z</time>
      </trkpt>
      <trkpt lat="46.03573" lon="4.03742">
        <ele>337.63</ele>
        <time>2018-06-02T14:06:19Z</time>
      </trkpt>
      <trkpt lat="46.03569" lon="4.03745">
        <ele>337.922</ele>
        <time>2018-06-02T14:06:25Z</time>
      </trkpt>
      <trkpt lat="46.03566" lon="4.03749">
        <ele>337.797</ele>
        <time>2018-06-02T14:06:30Z</time>
      </trkpt>
      <trkpt lat="46.03559" lon="4.03749">
        <ele>337.515</ele>
        <time>2018-06-02T14:06:36Z</time>
      </trkpt>
      <trkpt lat="46.03553" lon="4.03753">
        <ele>336.983</ele>
        <time>2018-06-02T14:06:42Z</time>
      </trkpt>
      <trkpt lat="46.03549" lon="4.03757">
        <ele>336.695</ele>
        <time>2018-06-02T14:06:47Z</time>
      </trkpt>
      <trkpt lat="46.03544" lon="4.03763">
        <ele>336.847</ele>
        <time>2018-06-02T14:06:52Z</time>
      </trkpt>
      <trkpt lat="46.03541" lon="4.03766">
        <ele>337.24</ele>
        <time>2018-06-02T14:06:58Z</time>
      </trkpt>
      <trkpt lat="46.03534" lon="4.03775">
        <ele>338.175</ele>
        <time>2018-06-02T14:07:04Z</time>
      </trkpt>
      <trkpt lat="46.03531" lon="4.03781">
        <ele>338.456</ele>
        <time>2018-06-02T14:07:10Z</time>
      </trkpt>
      <trkpt lat="46.03528" lon="4.03788">
        <ele>338.328</ele>
        <time>2018-06-02T14:07:16Z</time>
      </trkpt>
      <trkpt lat="46.03525" lon="4.03797">
        <ele>338.287</ele>
        <time>2018-06-02T14:07:22Z</time>
      </trkpt>
      <trkpt lat="46.03521" lon="4.03808">
        <ele>337.882</ele>
        <time>2018-06-02T14:07:28Z</time>
      </trkpt>
      <trkpt lat="46.03521" lon="4.03815">
        <ele>337.873</ele>
        <time>2018-06-02T14:07:33Z</time>
      </trkpt>
      <trkpt lat="46.0352" lon="4.03817">
        <ele>337.959</ele>
        <time>2018-06-02T14:07:39Z</time>
      </trkpt>
      <trkpt lat="46.03521" lon="4.03825">
        <ele>338.096</ele>
        <time>2018-06-02T14:07:45Z</time>
      </trkpt>
      <trkpt lat="46.03523" lon="4.03832">
        <ele>338.748</ele>
        <time>2018-06-02T14:07:51Z</time>
      </trkpt>
      <trkpt lat="46.03524" lon="4.03834">
        <ele>338.985</ele>
        <time>2018-06-02T14:07:56Z</time>
      </trkpt>
      <trkpt lat="46.03522" lon="4.03839">
        <ele>339.055</ele>
        <time>2018-06-02T14:08:01Z</time>
      </trkpt>
      <trkpt lat="46.03519" lon="4.03844">
        <ele>339.085</ele>
        <time>2018-06-02T14:08:07Z</time>
      </trkpt>
      <trkpt lat="46.03519" lon="4.03843">
        <ele>339.225</ele>
        <time>2018-06-02T14:08:13Z</time>
      </trkpt>
      <trkpt lat="46.0352" lon="4.03842">
        <ele>339.27</ele>
        <time>2018-06-02T14:08:19Z</time>
      </trkpt>
      <trkpt lat="46.03521" lon="4.03843">
        <ele>339.45</ele>
        <time>2018-06-02T14:08:25Z</time>
      </trkpt>
      <trkpt lat="46.03521" lon="4.03844">
        <ele>339.097</ele>
        <time>2018-06-02T14:08:30Z</time>
      </trkpt>
      <trkpt lat="46.03521" lon="4.03845">
        <ele>339.014</ele>
        <time>2018-06-02T14:08:35Z</time>
      </trkpt>
      <trkpt lat="46.03524" lon="4.03848">
        <ele>338.688</ele>
        <time>2018-06-02T14:08:40Z</time>
      </trkpt>
      <trkpt lat="46.03527" lon="4.03854">
        <ele>338.032</ele>
        <time>2018-06-02T14:08:46Z</time>
      </trkpt>
      <trkpt lat="46.03533" lon="4.03858">
        <ele>338.072</ele>
        <time>2018-06-02T14:08:51Z</time>
      </trkpt>
      <trkpt lat="46.03534" lon="4.03863">
        <ele>337.946</ele>
        <time>2018-06-02T14:08:57Z</time>
      </trkpt>
      <trkpt lat="46.03536" lon="4.03868">
        <ele>337.614</ele>
        <time>2018-06-02T14:09:03Z</time>
      </trkpt>
      <trkpt lat="46.03538" lon="4.03873">
        <ele>336.676</ele>
        <time>2018-06-02T14:09:09Z</time>
      </trkpt>
      <trkpt lat="46.03539" lon="4.03875">
        <ele>335.866</ele>
        <time>2018-06-02T14:09:15Z</time>
      </trkpt>
      <trkpt lat="46.0354" lon="4.03878">
        <ele>335.394</ele>
        <time>2018-06-02T14:09:20Z</time>
      </trkpt>
      <trkpt lat="46.03544" lon="4.03886">
        <ele>334.963</ele>
        <time>2018-06-02T14:09:26Z</time>
      </trkpt>
      <trkpt lat="46.03546" lon="4.03896">
        <ele>334.909</ele>
        <time>2018-06-02T14:09:32Z</time>
      </trkpt>
      <trkpt lat="46.03547" lon="4.03907">
        <ele>335.67</ele>
        <time>2018-06-02T14:09:38Z</time>
      </trkpt>
      <trkpt lat="46.03547" lon="4.0391">
        <ele>336.029</ele>
        <time>2018-06-02T14:09:43Z</time>
      </trkpt>
      <trkpt lat="46.03547" lon="4.0391">
        <ele>336.146</ele>
        <time>2018-06-02T14:09:49Z</time>
      </trkpt>
      <trkpt lat="46.03543" lon="4.0391">
        <ele>336.218</ele>
        <time>2018-06-02T14:09:55Z</time>
      </trkpt>
      <trkpt lat="46.03541" lon="4.03911">
        <ele>336.365</ele>
        <time>2018-06-02T14:10:00Z</time>
      </trkpt>
      <trkpt lat="46.03541" lon="4.03918">
        <ele>336.029</ele>
        <time>2018-06-02T14:10:06Z</time>
      </trkpt>
      <trkpt lat="46.03544" lon="4.03922">
        <ele>335.769</ele>
        <time>2018-06-02T14:10:12Z</time>
      </trkpt>
      <trkpt lat="46.03546" lon="4.03925">
        <ele>335.437</ele>
        <time>2018-06-02T14:10:17Z</time>
      </trkpt>
      <trkpt lat="46.0355" lon="4.03931">
        <ele>335.34</ele>
        <time>2018-06-02T14:10:23Z</time>
      </trkpt>
      <trkpt lat="46.03553" lon="4.03934">
        <ele>335.279</ele>
        <time>2018-06-02T14:10:28Z</time>
      </trkpt>
      <trkpt lat="46.03556" lon="4.03938">
        <ele>335.174</ele>
        <time>2018-06-02T14:10:34Z</time>
      </trkpt>
      <trkpt lat="46.0356" lon="4.03941">
        <ele>335.284</ele>
        <time>2018-06-02T14:10:39Z</time>
      </trkpt>
      <trkpt lat="46.03562" lon="4.03945">
        <ele>334.907</ele>
        <time>2018-06-02T14:10:44Z</time>
      </trkpt>
      <trkpt lat="46.03568" lon="4.03951">
        <ele>334.571</ele>
        <time>2018-06-02T14:10:50Z</time>
      </trkpt>
      <trkpt lat="46.03572" lon="4.03956">
        <ele>334.509</ele>
        <time>2018-06-02T14:10:55Z</time>
      </trkpt>
      <trkpt lat="46.03576" lon="4.03963">
        <ele>334.467</ele>
        <time>2018-06-02T14:11:01Z</time>
      </trkpt>
      <trkpt lat="46.03578" lon="4.0397">
        <ele>334.444</ele>
        <time>2018-06-02T14:11:07Z</time>
      </trkpt>
      <trkpt lat="46.0358" lon="4.03978">
        <ele>334.032</ele>
        <time>2018-06-02T14:11:13Z</time>
      </trkpt>
      <trkpt lat="46.03581" lon="4.03981">
        <ele>333.677</ele>
        <time>2018-06-02T14:11:18Z</time>
      </trkpt>
      <trkpt lat="46.03587" lon="4.03986">
        <ele>333.379</ele>
        <time>2018-06-02T14:11:24Z</time>
      </trkpt>
      <trkpt lat="46.03589" lon="4.03992">
        <ele>333.078</ele>
        <time>2018-06-02T14:11:30Z</time>
      </trkpt>
      <trkpt lat="46.03591" lon="4.03998">
        <ele>332.644</ele>
        <time>2018-06-02T14:11:35Z</time>
      </trkpt>
      <trkpt lat="46.03593" lon="4.04001">
        <ele>332.289</ele>
        <time>2018-06-02T14:11:40Z</time>
      </trkpt>
      <trkpt lat="46.03597" lon="4.04009">
        <ele>332.591</ele>
        <time>2018-06-02T14:11:46Z</time>
      </trkpt>
      <trkpt lat="46.03602" lon="4.04017">
        <ele>333.082</ele>
        <time>2018-06-02T14:11:51Z</time>
      </trkpt>
      <trkpt lat="46.03604" lon="4.04017">
        <ele>333.584</ele>
        <time>2018-06-02T14:11:57Z</time>
      </trkpt>
      <trkpt lat="46.03604" lon="4.04017">
        <ele>333.739</ele>
        <time>2018-06-02T14:12:03Z</time>
      </trkpt>
      <trkpt lat="46.03604" lon="4.04017">
        <ele>333.972</ele>
        <time>2018-06-02T14:12:09Z</time>
      </trkpt>
      <trkpt lat="46.03607" lon="4.0402">
        <ele>335.254</ele>
        <time>2018-06-02T14:12:15Z</time>
      </trkpt>
      <trkpt lat="46.03615" lon="4.04026">
        <ele>336.137</ele>
        <time>2018-06-02T14:12:21Z</time>
      </trkpt>
      <trkpt lat="46.03618" lon="4.0403">
        <ele>337.434</ele>
        <time>2018-06-02T14:12:27Z</time>
      </trkpt>
      <trkpt lat="46.03621" lon="4.04035">
        <ele>338.095</ele>
        <time>2018-06-02T14:12:33Z</time>
      </trkpt>
      <trkpt lat="46.03625" lon="4.04041">
        <ele>337.987</ele>
        <time>2018-06-02T14:12:39Z</time>
      </trkpt>
      <trkpt lat="46.03626" lon="4.04046">
        <ele>337.929</ele>
        <time>2018-06-02T14:12:44Z</time>
      </trkpt>
      <trkpt lat="46.03629" lon="4.04049">
        <ele>338.027</ele>
        <time>2018-06-02T14:12:50Z</time>
      </trkpt>
      <trkpt lat="46.0363" lon="4.04051">
        <ele>338.172</ele>
        <time>2018-06-02T14:12:56Z</time>
      </trkpt>
      <trkpt lat="46.03629" lon="4.04053">
        <ele>338.293</ele>
        <time>2018-06-02T14:13:01Z</time>
      </trkpt>
      <trkpt lat="46.0363" lon="4.04053">
        <ele>338.541</ele>
        <time>2018-06-02T14:13:07Z</time>
      </trkpt>
      <trkpt lat="46.03634" lon="4.04054">
        <ele>338.433</ele>
        <time>2018-06-02T14:13:13Z</time>
      </trkpt>
      <trkpt lat="46.03636" lon="4.04054">
        <ele>338.296</ele>
        <time>2018-06-02T14:13:18Z</time>
      </trkpt>
      <trkpt lat="46.03639" lon="4.04059">
        <ele>337.943</ele>
        <time>2018-06-02T14:13:24Z</time>
      </trkpt>
      <trkpt lat="46.03645" lon="4.04065">
        <ele>337.573</ele>
        <time>2018-06-02T14:13:30Z</time>
      </trkpt>
      <trkpt lat="46.03648" lon="4.04069">
        <ele>337.342</ele>
        <time>2018-06-02T14:13:35Z</time>
      </trkpt>
      <trkpt lat="46.03649" lon="4.04078">
        <ele>337.115</ele>
        <time>2018-06-02T14:13:41Z</time>
      </trkpt>
      <trkpt lat="46.03651" lon="4.04084">
        <ele>336.946</ele>
        <time>2018-06-02T14:13:46Z</time>
      </trkpt>
      <trkpt lat="46.03652" lon="4.04092">
        <ele>336.357</ele>
        <time>2018-06-02T14:13:51Z</time>
      </trkpt>
      <trkpt lat="46.03652" lon="4.04099">
        <ele>335.837</ele>
        <time>2018-06-02T14:13:57Z</time>
      </trkpt>
      <trkpt lat="46.03647" lon="4.04108">
        <ele>335.542</ele>
        <time>2018-06-02T14:14:02Z</time>
      </trkpt>
      <trkpt lat="46.03645" lon="4.04114">
        <ele>335.864</ele>
        <time>2018-06-02T14:14:07Z</time>
      </trkpt>
      <trkpt lat="46.03643" lon="4.04118">
        <ele>335.71</ele>
        <time>2018-06-02T14:14:12Z</time>
      </trkpt>
      <trkpt lat="46.0364" lon="4.04122">
        <ele>335.795</ele>
        <time>2018-06-02T14:14:17Z</time>
      </trkpt>
      <trkpt lat="46.03638" lon="4.04132">
        <ele>336.133</ele>
        <time>2018-06-02T14:14:23Z</time>
      </trkpt>
      <trkpt lat="46.03635" lon="4.04137">
        <ele>336.122</ele>
        <time>2018-06-02T14:14:28Z</time>
      </trkpt>
      <trkpt lat="46.03631" lon="4.04144">
        <ele>336.502</ele>
        <time>2018-06-02T14:14:34Z</time>
      </trkpt>
      <trkpt lat="46.03627" lon="4.04151">
        <ele>336.626</ele>
        <time>2018-06-02T14:14:39Z</time>
      </trkpt>
      <trkpt lat="46.03625" lon="4.04156">
        <ele>336.356</ele>
        <time>2018-06-02T14:14:45Z</time>
      </trkpt>
      <trkpt lat="46.03623" lon="4.04161">
        <ele>336.429</ele>
        <time>2018-06-02T14:14:50Z</time>
      </trkpt>
      <trkpt lat="46.03622" lon="4.04169">
        <ele>336.104</ele>
        <time>2018-06-02T14:14:56Z</time>
      </trkpt>
      <trkpt lat="46.03618" lon="4.0418">
        <ele>335.616</ele>
        <time>2018-06-02T14:15:01Z</time>
      </trkpt>
      <trkpt lat="46.03615" lon="4.04184">
        <ele>335.638</ele>
        <time>2018-06-02T14:15:07Z</time>
      </trkpt>
      <trkpt lat="46.03614" lon="4.04185">
        <ele>335.724</ele>
        <time>2018-06-02T14:15:12Z</time>
      </trkpt>
      <trkpt lat="46.03612" lon="4.04185">
        <ele>335.502</ele>
        <time>2018-06-02T14:15:18Z</time>
      </trkpt>
      <trkpt lat="46.03611" lon="4.04183">
        <ele>335.472</ele>
        <time>2018-06-02T14:15:23Z</time>
      </trkpt>
      <trkpt lat="46.03609" lon="4.04188">
        <ele>335.094</ele>
        <time>2018-06-02T14:15:29Z</time>
      </trkpt>
      <trkpt lat="46.03608" lon="4.04194">
        <ele>334.562</ele>
        <time>2018-06-02T14:15:35Z</time>
      </trkpt>
      <trkpt lat="46.03607" lon="4.04202">
        <ele>333.635</ele>
        <time>2018-06-02T14:15:41Z</time>
      </trkpt>
      <trkpt lat="46.03605" lon="4.0421">
        <ele>332.949</ele>
        <time>2018-06-02T14:15:46Z</time>
      </trkpt>
      <trkpt lat="46.03604" lon="4.04215">
        <ele>332.074</ele>
        <time>2018-06-02T14:15:52Z</time>
      </trkpt>
      <trkpt lat="46.03601" lon="4.04224">
        <ele>331.007</ele>
        <time>2018-06-02T14:15:58Z</time>
      </trkpt>
      <trkpt lat="46.036" lon="4.04231">
        <ele>330.866</ele>
        <time>2018-06-02T14:16:03Z</time>
      </trkpt>
      <trkpt lat="46.03598" lon="4.04234">
        <ele>331.057</ele>
        <time>2018-06-02T14:16:09Z</time>
      </trkpt>
      <trkpt lat="46.03594" lon="4.0425">
        <ele>331.409</ele>
        <time>2018-06-02T14:16:15Z</time>
      </trkpt>
      <trkpt lat="46.03594" lon="4.04254">
        <ele>331.73</ele>
        <time>2018-06-02T14:16:20Z</time>
      </trkpt>
      <trkpt lat="46.03593" lon="4.04262">
        <ele>331.62</ele>
        <time>2018-06-02T14:16:26Z</time>
      </trkpt>
      <trkpt lat="46.03595" lon="4.04267">
        <ele>331.745</ele>
        <time>2018-06-02T14:16:31Z</time>
      </trkpt>
      <trkpt lat="46.03596" lon="4.04271">
        <ele>332.333</ele>
        <time>2018-06-02T14:16:37Z</time>
      </trkpt>
      <trkpt lat="46.03595" lon="4.04278">
        <ele>332.745</ele>
        <time>2018-06-02T14:16:43Z</time>
      </trkpt>
      <trkpt lat="46.03595" lon="4.04278">
        <ele>332.913</ele>
        <time>2018-06-02T14:16:48Z</time>
      </trkpt>
      <trkpt lat="46.03595" lon="4.04279">
        <ele>333.106</ele>
        <time>2018-06-02T14:16:53Z</time>
      </trkpt>
      <trkpt lat="46.03592" lon="4.04283">
        <ele>333.476</ele>
        <time>2018-06-02T14:16:58Z</time>
      </trkpt>
      <trkpt lat="46.03587" lon="4.04291">
        <ele>334.609</ele>
        <time>2018-06-02T14:17:04Z</time>
      </trkpt>
      <trkpt lat="46.03585" lon="4.04297">
        <ele>335.128</ele>
        <time>2018-06-02T14:17:09Z</time>
      </trkpt>
      <trkpt lat="46.03584" lon="4.04298">
        <ele>335.834</ele>
        <time>2018-06-02T14:17:14Z</time>
      </trkpt>
      <trkpt lat="46.03584" lon="4.04299">
        <ele>336.612</ele>
        <time>2018-06-02T14:17:19Z</time>
      </trkpt>
      <trkpt lat="46.03583" lon="4.04304">
        <ele>336.667</ele>
        <time>2018-06-02T14:17:25Z</time>
      </trkpt>
      <trkpt lat="46.03583" lon="4.04304">
        <ele>336.564</ele>
        <time>2018-06-02T14:17:30Z</time>
      </trkpt>
    </trkseg>
  </trk>
</gpx>